createdAt,value
2022-12-06T05:00:29.997Z,95.34
2022-12-06T05:01:29.879Z,95.34
2022-12-06T05:02:29.881Z,95.54
2022-12-06T05:03:29.901Z,95.44
2022-12-06T05:04:29.850Z,95.44
2022-12-06T05:05:29.833Z,95.03
2022-12-06T05:06:29.825Z,94.31
2022-12-06T05:07:29.822Z,94.41
2022-12-06T05:08:29.801Z,94.20
2022-12-06T05:09:29.799Z,94.20
2022-12-06T05:10:29.787Z,94.10
2022-12-06T05:11:34.821Z,93.99
2022-12-06T05:12:29.769Z,94.04
2022-12-06T05:13:29.746Z,93.73
2022-12-06T05:14:29.736Z,93.52
2022-12-06T05:15:29.749Z,93.73
2022-12-06T05:16:29.781Z,94.20
2022-12-06T05:17:29.720Z,94.10
2022-12-06T05:18:29.691Z,94.31
2022-12-06T05:19:29.683Z,93.68
2022-12-06T05:20:29.667Z,94.10
2022-12-06T05:21:29.661Z,94.10
2022-12-06T05:22:34.679Z,94.10
2022-12-06T05:23:29.635Z,93.79
2022-12-06T05:24:29.631Z,93.79
2022-12-06T05:25:29.611Z,93.79
2022-12-06T05:26:29.612Z,94.20
2022-12-06T05:27:35.694Z,93.99
2022-12-06T05:28:30.582Z,93.58
2022-12-06T05:29:29.573Z,92.65
2022-12-06T05:30:29.555Z,92.65
2022-12-06T05:31:29.618Z,92.85
2022-12-06T05:32:29.567Z,93.06
2022-12-06T05:33:34.544Z,92.85
2022-12-06T05:34:29.512Z,92.13
2022-12-06T05:35:29.500Z,91.82
2022-12-06T05:36:29.499Z,91.72
2022-12-06T05:37:29.478Z,92.03
2022-12-06T05:38:29.487Z,92.24
2022-12-06T05:39:29.456Z,91.93
2022-12-06T05:40:29.445Z,91.72
2022-12-06T05:41:29.434Z,91.93
2022-12-06T05:42:29.456Z,91.72
2022-12-06T05:43:29.424Z,91.82
2022-12-06T05:44:34.426Z,91.61
2022-12-06T05:45:29.442Z,91.82
2022-12-06T05:46:29.433Z,92.13
2022-12-06T05:47:29.366Z,92.03
2022-12-06T05:48:29.387Z,92.03
2022-12-06T05:49:29.344Z,91.72
2022-12-06T05:50:29.333Z,91.41
2022-12-06T05:51:29.320Z,91.20
2022-12-06T05:52:29.322Z,91.61
2022-12-06T05:53:29.313Z,90.99
2022-12-06T05:54:29.290Z,91.20
2022-12-06T05:55:34.299Z,90.89
2022-12-06T05:56:29.266Z,91.20
2022-12-06T05:57:29.252Z,91.20
2022-12-06T05:58:29.257Z,91.30
2022-12-06T05:59:29.234Z,90.78
2022-12-06T06:00:29.226Z,91.61
2022-12-06T06:01:29.211Z,91.30
2022-12-06T06:02:29.330Z,91.30
2022-12-06T06:03:29.280Z,91.30
2022-12-06T06:04:29.200Z,90.89
2022-12-06T06:05:29.168Z,90.99
2022-12-06T06:06:34.182Z,90.89
2022-12-06T06:07:29.144Z,90.89
2022-12-06T06:08:29.148Z,90.89
2022-12-06T06:09:29.131Z,90.58
2022-12-06T06:10:29.114Z,90.78
2022-12-06T06:11:29.099Z,90.20
2022-12-06T06:12:29.086Z,90.68
2022-12-06T06:13:29.083Z,90.99
2022-12-06T06:14:29.065Z,90.47
2022-12-06T06:15:29.052Z,90.47
2022-12-06T06:16:29.136Z,90.47
2022-12-06T06:17:34.056Z,90.37
2022-12-06T06:18:29.041Z,90.26
2022-12-06T06:19:29.019Z,90.68
2022-12-06T06:20:29.021Z,91.51
2022-12-06T06:21:29.001Z,90.68
2022-12-06T06:22:28.978Z,90.89
2022-12-06T06:23:28.976Z,90.99
2022-12-06T06:24:28.952Z,90.99
2022-12-06T06:25:28.944Z,91.20
2022-12-06T06:26:28.944Z,90.37
2022-12-06T06:27:28.921Z,90.89
2022-12-06T06:28:33.940Z,90.37
2022-12-06T06:29:28.895Z,90.58
2022-12-06T06:30:28.905Z,90.47
2022-12-06T06:31:28.969Z,89.75
2022-12-06T06:32:28.864Z,89.75
2022-12-06T06:33:28.862Z,90.06
2022-12-06T06:34:28.845Z,89.96
2022-12-06T06:35:28.844Z,90.58
2022-12-06T06:36:28.840Z,90.26
2022-12-06T06:37:28.809Z,89.75
2022-12-06T06:38:28.831Z,89.23
2022-12-06T06:39:33.810Z,89.54
2022-12-06T06:40:28.789Z,89.96
2022-12-06T06:41:28.763Z,89.23
2022-12-06T06:42:28.750Z,89.28
2022-12-06T06:43:28.769Z,89.13
2022-12-06T06:44:28.727Z,88.71
2022-12-06T06:45:29.243Z,88.92
2022-12-06T06:46:28.828Z,89.03
2022-12-06T06:47:28.694Z,88.96
2022-12-06T06:48:28.682Z,89.07
2022-12-06T06:49:28.683Z,88.96
2022-12-06T06:50:33.680Z,89.07
2022-12-06T06:51:28.657Z,89.52
2022-12-06T06:52:28.656Z,89.17
2022-12-06T06:53:28.631Z,90.00
2022-12-06T06:54:28.628Z,89.38
2022-12-06T06:55:28.612Z,90.00
2022-12-06T06:56:28.597Z,89.79
2022-12-06T06:57:28.586Z,90.31
2022-12-06T06:58:28.573Z,90.20
2022-12-06T06:59:28.577Z,89.69
2022-12-06T07:00:28.573Z,89.69
2022-12-06T07:01:33.618Z,89.79
2022-12-06T07:02:28.562Z,90.62
2022-12-06T07:03:28.523Z,90.62
2022-12-06T07:04:28.511Z,90.20
2022-12-06T07:05:28.492Z,90.06
2022-12-06T07:06:28.478Z,90.20
2022-12-06T07:07:28.474Z,89.48
2022-12-06T07:08:28.511Z,90.00
2022-12-06T07:09:28.470Z,89.69
2022-12-06T07:10:28.433Z,89.38
2022-12-06T07:11:28.427Z,89.48
2022-12-06T07:12:33.448Z,90.10
2022-12-06T07:13:28.408Z,89.79
2022-12-06T07:14:28.400Z,90.20
2022-12-06T07:15:28.379Z,90.00
2022-12-06T07:16:28.449Z,89.89
2022-12-06T07:17:28.364Z,89.79
2022-12-06T07:18:28.347Z,89.48
2022-12-06T07:19:28.380Z,89.58
2022-12-06T07:20:28.325Z,89.38
2022-12-06T07:21:28.314Z,90.62
2022-12-06T07:22:28.299Z,90.52
2022-12-06T07:23:33.331Z,90.10
2022-12-06T07:24:28.290Z,89.89
2022-12-06T07:25:28.298Z,89.79
2022-12-06T07:26:28.255Z,90.20
2022-12-06T07:27:28.251Z,90.06
2022-12-06T07:28:28.235Z,89.75
2022-12-06T07:29:28.260Z,89.13
2022-12-06T07:30:28.218Z,89.86
2022-12-06T07:31:28.327Z,89.86
2022-12-06T07:32:28.200Z,90.20
2022-12-06T07:33:28.183Z,89.96
2022-12-06T07:34:33.228Z,89.28
2022-12-06T07:35:48.371Z,89.38
2022-12-06T07:36:29.145Z,89.28
2022-12-06T07:37:28.137Z,89.38
2022-12-06T07:38:28.124Z,89.58
2022-12-06T07:39:28.143Z,89.58
2022-12-06T07:40:56.243Z,89.79
2022-12-06T07:41:29.087Z,89.79
2022-12-06T07:42:28.101Z,89.79
2022-12-06T07:43:28.072Z,89.79
2022-12-06T07:44:28.064Z,90.31
2022-12-06T07:45:33.090Z,90.41
2022-12-06T07:46:28.074Z,90.62
2022-12-06T07:47:28.026Z,89.86
2022-12-06T07:48:28.010Z,90.41
2022-12-06T07:49:28.011Z,89.75
2022-12-06T07:50:28.048Z,90.10
2022-12-06T07:51:27.978Z,89.34
2022-12-06T07:52:28.042Z,89.89
2022-12-06T07:53:28.010Z,89.79
2022-12-06T07:54:27.955Z,89.48
2022-12-06T07:55:27.977Z,90.47
2022-12-06T07:56:32.950Z,90.37
2022-12-06T07:57:27.922Z,90.37
2022-12-06T07:58:27.906Z,90.62
2022-12-06T07:59:27.925Z,90.06
2022-12-06T08:00:27.935Z,90.06
2022-12-06T08:01:27.929Z,90.06
2022-12-06T08:02:27.870Z,89.34
2022-12-06T08:03:27.878Z,89.86
2022-12-06T08:04:27.880Z,89.75
2022-12-06T08:05:27.823Z,90.47
2022-12-06T08:06:27.809Z,89.75
2022-12-06T08:07:32.848Z,89.86
2022-12-06T08:08:29.038Z,89.96
2022-12-06T08:09:27.799Z,90.06
2022-12-06T08:10:27.787Z,89.75
2022-12-06T08:11:27.774Z,89.75
2022-12-06T08:12:27.745Z,89.75
2022-12-06T08:13:27.733Z,90.26
2022-12-06T08:14:27.730Z,90.10
2022-12-06T08:15:27.723Z,89.96
2022-12-06T08:16:27.820Z,90.00
2022-12-06T08:17:27.691Z,90.31
2022-12-06T08:18:32.727Z,90.37
2022-12-06T08:19:27.666Z,90.37
2022-12-06T08:20:27.678Z,90.26
2022-12-06T08:21:27.720Z,90.68
2022-12-06T08:22:27.632Z,90.68
2022-12-06T08:23:33.707Z,89.86
2022-12-06T08:24:28.609Z,89.44
2022-12-06T08:25:27.616Z,89.54
2022-12-06T08:26:27.588Z,89.96
2022-12-06T08:27:27.631Z,89.96
2022-12-06T08:28:27.567Z,90.06
2022-12-06T08:29:32.577Z,89.75
2022-12-06T08:30:27.551Z,89.03
2022-12-06T08:31:27.574Z,89.03
2022-12-06T08:32:27.545Z,89.13
2022-12-06T08:33:27.512Z,89.19
2022-12-06T08:34:27.499Z,89.50
2022-12-06T08:35:27.507Z,89.71
2022-12-06T08:36:27.491Z,89.71
2022-12-06T08:37:27.475Z,89.23
2022-12-06T08:38:27.455Z,89.54
2022-12-06T08:39:27.445Z,89.92
2022-12-06T08:40:32.462Z,89.44
2022-12-06T08:41:27.420Z,89.54
2022-12-06T08:42:27.409Z,89.65
2022-12-06T08:43:27.432Z,89.61
2022-12-06T08:44:27.425Z,90.02
2022-12-06T08:45:27.619Z,89.61
2022-12-06T08:46:27.529Z,89.29
2022-12-06T08:47:27.355Z,89.29
2022-12-06T08:48:27.384Z,89.71
2022-12-06T08:49:27.357Z,88.78
2022-12-06T08:50:27.365Z,88.57
2022-12-06T08:51:32.358Z,88.67
2022-12-06T08:52:27.292Z,89.19
2022-12-06T08:53:27.284Z,88.51
2022-12-06T08:54:27.278Z,88.57
2022-12-06T08:55:27.301Z,88.30
2022-12-06T08:56:27.252Z,88.57
2022-12-06T08:57:27.242Z,88.46
2022-12-06T08:58:27.236Z,88.36
2022-12-06T08:59:27.236Z,88.26
2022-12-06T09:00:27.219Z,88.26
2022-12-06T09:01:29.253Z,88.46
2022-12-06T09:02:33.201Z,87.95
2022-12-06T09:03:27.169Z,87.85
2022-12-06T09:04:27.227Z,87.33
2022-12-06T09:05:27.161Z,87.74
2022-12-06T09:06:27.167Z,87.85
2022-12-06T09:07:27.143Z,87.23
2022-12-06T09:08:27.116Z,87.43
2022-12-06T09:09:27.104Z,87.23
2022-12-06T09:10:27.130Z,87.23
2022-12-06T09:11:27.082Z,86.91
2022-12-06T09:12:27.082Z,86.81
2022-12-06T09:13:32.081Z,87.23
2022-12-06T09:14:27.049Z,87.54
2022-12-06T09:15:27.067Z,87.23
2022-12-06T09:16:27.112Z,87.18
2022-12-06T09:17:27.024Z,86.88
2022-12-06T09:18:27.011Z,86.50
2022-12-06T09:19:26.991Z,87.08
2022-12-06T09:20:26.987Z,87.18
2022-12-06T09:21:26.968Z,86.60
2022-12-06T09:22:26.954Z,86.29
2022-12-06T09:23:26.953Z,86.71
2022-12-06T09:24:31.962Z,86.29
2022-12-06T09:25:26.944Z,86.50
2022-12-06T09:26:26.912Z,86.29
2022-12-06T09:27:26.900Z,86.60
2022-12-06T09:28:26.887Z,86.60
2022-12-06T09:29:26.902Z,86.81
2022-12-06T09:30:26.880Z,86.60
2022-12-06T09:31:27.092Z,86.50
2022-12-06T09:32:26.862Z,86.60
2022-12-06T09:33:26.831Z,86.71
2022-12-06T09:34:26.833Z,86.60
2022-12-06T09:35:31.854Z,86.60
2022-12-06T09:36:26.800Z,86.81
2022-12-06T09:37:26.786Z,87.12
2022-12-06T09:38:26.779Z,87.02
2022-12-06T09:39:26.789Z,87.23
2022-12-06T09:40:26.788Z,87.43
2022-12-06T09:41:26.791Z,87.43
2022-12-06T09:42:26.745Z,87.54
2022-12-06T09:43:26.719Z,87.02
2022-12-06T09:44:26.772Z,87.33
2022-12-06T09:45:26.704Z,87.49
2022-12-06T09:46:31.870Z,87.18
2022-12-06T09:47:26.676Z,87.18
2022-12-06T09:48:26.693Z,86.98
2022-12-06T09:49:26.649Z,86.81
2022-12-06T09:50:26.639Z,86.77
2022-12-06T09:51:26.685Z,87.18
2022-12-06T09:52:26.615Z,87.18
2022-12-06T09:53:26.606Z,86.57
2022-12-06T09:54:26.591Z,86.67
2022-12-06T09:55:26.618Z,86.60
2022-12-06T09:56:26.583Z,86.71
2022-12-06T09:57:31.585Z,86.50
2022-12-06T09:58:26.545Z,86.98
2022-12-06T09:59:26.536Z,86.88
2022-12-06T10:00:26.635Z,86.88
2022-12-06T10:01:26.571Z,86.67
2022-12-06T10:02:26.603Z,86.36
2022-12-06T10:03:26.586Z,86.25
2022-12-06T10:04:26.483Z,86.36
2022-12-06T10:05:26.479Z,86.57
2022-12-06T10:06:26.467Z,86.25
2022-12-06T10:07:26.444Z,86.36
2022-12-06T10:08:31.547Z,86.36
2022-12-06T10:09:26.425Z,86.25
2022-12-06T10:10:26.412Z,86.25
2022-12-06T10:11:26.397Z,86.25
2022-12-06T10:12:26.396Z,86.36
2022-12-06T10:13:26.376Z,86.15
2022-12-06T10:14:26.364Z,86.15
2022-12-06T10:15:26.352Z,86.36
2022-12-06T10:16:26.399Z,86.36
2022-12-06T10:17:26.343Z,86.67
2022-12-06T10:18:26.336Z,86.67
2022-12-06T10:19:31.331Z,86.57
2022-12-06T10:20:26.295Z,86.46
2022-12-06T10:21:26.287Z,86.57
2022-12-06T10:22:26.280Z,86.42
2022-12-06T10:23:26.263Z,86.25
2022-12-06T10:24:26.248Z,86.25
2022-12-06T10:25:26.243Z,86.25
2022-12-06T10:26:26.229Z,86.32
2022-12-06T10:27:26.262Z,86.32
2022-12-06T10:28:26.202Z,86.63
2022-12-06T10:29:29.716Z,86.63
2022-12-06T10:30:31.204Z,86.67
2022-12-06T10:31:26.260Z,86.83
2022-12-06T10:32:26.167Z,86.77
2022-12-06T10:33:26.147Z,86.42
2022-12-06T10:34:26.153Z,86.42
2022-12-06T10:35:26.130Z,86.32
2022-12-06T10:36:26.114Z,86.21
2022-12-06T10:37:26.126Z,86.32
2022-12-06T10:38:26.091Z,86.42
2022-12-06T10:39:26.082Z,86.01
2022-12-06T10:40:26.068Z,85.80
2022-12-06T10:41:31.080Z,85.91
2022-12-06T10:42:26.045Z,85.28
2022-12-06T10:43:26.044Z,85.28
2022-12-06T10:44:26.019Z,84.56
2022-12-06T10:45:26.030Z,84.77
2022-12-06T10:46:26.076Z,85.28
2022-12-06T10:47:25.991Z,84.56
2022-12-06T10:48:26.005Z,85.60
2022-12-06T10:49:25.965Z,84.77
2022-12-06T10:50:26.011Z,85.28
2022-12-06T10:51:25.961Z,84.87
2022-12-06T10:52:30.981Z,85.04
2022-12-06T10:53:25.934Z,84.45
2022-12-06T10:54:25.909Z,84.21
2022-12-06T10:55:25.907Z,84.73
2022-12-06T10:56:25.887Z,83.80
2022-12-06T10:57:25.877Z,83.49
2022-12-06T10:58:25.883Z,84.73
2022-12-06T10:59:25.853Z,83.70
2022-12-06T11:00:25.839Z,83.49
2022-12-06T11:01:25.910Z,83.59
2022-12-06T11:02:26.062Z,83.49
2022-12-06T11:03:30.843Z,83.28
2022-12-06T11:04:25.800Z,82.45
2022-12-06T11:05:25.786Z,82.66
2022-12-06T11:06:25.793Z,82.66
2022-12-06T11:07:25.759Z,82.56
2022-12-06T11:08:25.776Z,82.62
2022-12-06T11:09:25.737Z,82.62
2022-12-06T11:10:25.728Z,82.35
2022-12-06T11:11:25.721Z,82.66
2022-12-06T11:12:31.022Z,82.83
2022-12-06T11:13:26.708Z,82.76
2022-12-06T11:14:30.718Z,82.87
2022-12-06T11:15:25.672Z,82.87
2022-12-06T11:16:25.743Z,83.25
2022-12-06T11:17:25.648Z,82.87
2022-12-06T11:18:25.668Z,82.87
2022-12-06T11:19:25.635Z,82.25
2022-12-06T11:20:25.633Z,82.15
2022-12-06T11:21:25.605Z,82.04
2022-12-06T11:22:25.611Z,82.76
2022-12-06T11:23:25.611Z,81.63
2022-12-06T11:24:25.583Z,82.31
2022-12-06T11:25:30.578Z,82.62
2022-12-06T11:26:25.549Z,82.04
2022-12-06T11:27:25.535Z,82.25
2022-12-06T11:28:25.523Z,81.28
2022-12-06T11:29:25.522Z,82.21
2022-12-06T11:30:25.508Z,81.49
2022-12-06T11:31:25.566Z,81.32
2022-12-06T11:32:25.477Z,81.52
2022-12-06T11:33:25.466Z,81.70
2022-12-06T11:34:25.463Z,81.70
2022-12-06T11:35:25.448Z,81.28
2022-12-06T11:36:30.460Z,81.80
2022-12-06T11:37:25.424Z,81.80
2022-12-06T11:38:25.431Z,81.70
2022-12-06T11:39:25.409Z,81.38
2022-12-06T11:40:25.395Z,81.38
2022-12-06T11:41:25.376Z,81.28
2022-12-06T11:42:25.371Z,81.38
2022-12-06T11:43:25.358Z,80.87
2022-12-06T11:44:25.385Z,80.97
2022-12-06T11:45:25.330Z,81.38
2022-12-06T11:46:25.373Z,81.07
2022-12-06T11:47:30.329Z,81.49
2022-12-06T11:48:25.309Z,81.49
2022-12-06T11:49:25.299Z,81.59
2022-12-06T11:50:25.275Z,81.42
2022-12-06T11:51:25.328Z,81.18
2022-12-06T11:52:25.254Z,81.80
2022-12-06T11:53:25.268Z,82.10
2022-12-06T11:54:25.260Z,81.18
2022-12-06T11:55:25.216Z,81.59
2022-12-06T11:56:25.207Z,81.70
2022-12-06T11:57:25.200Z,81.38
2022-12-06T11:58:30.212Z,81.80
2022-12-06T11:59:25.189Z,81.28
2022-12-06T12:00:25.180Z,82.10
2022-12-06T12:01:25.149Z,81.38
2022-12-06T12:02:25.190Z,81.70
2022-12-06T12:03:25.193Z,80.97
2022-12-06T12:04:25.127Z,81.59
2022-12-06T12:05:25.104Z,81.28
2022-12-06T12:06:25.112Z,81.28
2022-12-06T12:07:25.131Z,81.49
2022-12-06T12:08:28.488Z,81.70
2022-12-06T12:09:31.111Z,81.59
2022-12-06T12:10:25.051Z,81.59
2022-12-06T12:11:25.039Z,81.80
2022-12-06T12:12:25.027Z,81.70
2022-12-06T12:13:25.014Z,81.49
2022-12-06T12:14:25.018Z,81.59
2022-12-06T12:15:24.993Z,81.38
2022-12-06T12:16:25.058Z,81.38
2022-12-06T12:17:24.971Z,81.70
2022-12-06T12:18:24.980Z,81.59
2022-12-06T12:19:24.967Z,81.66
2022-12-06T12:20:29.958Z,81.80
2022-12-06T12:21:24.928Z,81.70
2022-12-06T12:22:24.915Z,81.70
2022-12-06T12:23:24.910Z,81.76
2022-12-06T12:24:24.917Z,81.70
2022-12-06T12:25:25.220Z,81.56
2022-12-06T12:26:24.873Z,81.38
2022-12-06T12:27:28.467Z,81.59
2022-12-06T12:28:24.853Z,81.66
2022-12-06T12:29:24.861Z,81.59
2022-12-06T12:30:24.833Z,81.07
2022-12-06T12:31:29.907Z,81.28
2022-12-06T12:32:24.803Z,81.49
2022-12-06T12:33:24.789Z,80.46
2022-12-06T12:34:24.779Z,80.35
2022-12-06T12:35:24.778Z,80.97
2022-12-06T12:36:24.757Z,81.59
2022-12-06T12:37:24.742Z,81.38
2022-12-06T12:38:24.754Z,81.38
2022-12-06T12:39:24.749Z,81.59
2022-12-06T12:40:24.723Z,81.80
2022-12-06T12:41:24.728Z,81.90
2022-12-06T12:42:29.718Z,81.38
2022-12-06T12:43:24.680Z,81.70
2022-12-06T12:44:40.329Z,81.80
2022-12-06T12:45:25.664Z,81.35
2022-12-06T12:46:24.731Z,81.59
2022-12-06T12:47:24.641Z,81.49
2022-12-06T12:48:24.624Z,81.45
2022-12-06T12:49:24.612Z,81.80
2022-12-06T12:50:24.616Z,80.76
2022-12-06T12:51:24.593Z,80.97
2022-12-06T12:52:24.584Z,80.52
2022-12-06T12:53:29.584Z,80.46
2022-12-06T12:54:24.554Z,80.97
2022-12-06T12:55:24.570Z,80.97
2022-12-06T12:56:24.533Z,81.14
2022-12-06T12:57:24.541Z,80.42
2022-12-06T12:58:24.538Z,81.04
2022-12-06T12:59:24.517Z,80.83
2022-12-06T13:00:24.507Z,80.62
2022-12-06T13:01:24.602Z,80.52
2022-12-06T13:02:24.548Z,80.73
2022-12-06T13:04:30.466Z,80.52
2022-12-06T13:05:33.294Z,80.83
2022-12-06T13:06:25.438Z,81.14
2022-12-06T13:07:24.407Z,80.62
2022-12-06T13:08:24.445Z,81.35
2022-12-06T13:09:24.384Z,81.24
2022-12-06T13:10:24.372Z,81.35
2022-12-06T13:11:24.373Z,80.83
2022-12-06T13:12:24.358Z,79.80
2022-12-06T13:13:24.357Z,80.83
2022-12-06T13:14:24.331Z,81.04
2022-12-06T13:15:29.413Z,80.62
2022-12-06T13:16:24.390Z,80.21
2022-12-06T13:17:24.312Z,80.52
2022-12-06T13:18:24.288Z,80.11
2022-12-06T13:19:24.271Z,80.11
2022-12-06T13:20:24.277Z,80.11
2022-12-06T13:21:24.272Z,80.32
2022-12-06T13:22:24.238Z,80.42
2022-12-06T13:23:24.231Z,80.73
2022-12-06T13:24:24.222Z,80.21
2022-12-06T13:25:24.202Z,79.49
2022-12-06T13:26:29.244Z,79.69
2022-12-06T13:27:24.178Z,79.28
2022-12-06T13:28:24.171Z,80.21
2022-12-06T13:29:24.179Z,80.00
2022-12-06T13:30:24.207Z,80.21
2022-12-06T13:31:24.199Z,80.00
2022-12-06T13:32:24.126Z,79.49
2022-12-06T13:33:24.111Z,79.38
2022-12-06T13:34:24.101Z,79.69
2022-12-06T13:35:24.090Z,80.11
2022-12-06T13:36:24.092Z,80.21
2022-12-06T13:37:29.091Z,80.62
2022-12-06T13:38:26.580Z,80.11
2022-12-06T13:39:24.047Z,80.11
2022-12-06T13:40:24.036Z,79.90
2022-12-06T13:41:24.030Z,79.90
2022-12-06T13:42:24.012Z,80.21
2022-12-06T13:43:24.002Z,80.11
2022-12-06T13:44:23.990Z,80.62
2022-12-06T13:45:24.000Z,80.21
2022-12-06T13:46:24.239Z,80.62
2022-12-06T13:47:23.955Z,80.32
2022-12-06T13:48:28.965Z,79.38
2022-12-06T13:49:23.931Z,79.80
2022-12-06T13:50:23.941Z,80.00
2022-12-06T13:51:23.922Z,80.32
2022-12-06T13:52:23.915Z,80.93
2022-12-06T13:53:23.891Z,80.83
2022-12-06T13:54:23.887Z,80.93
2022-12-06T13:55:23.878Z,80.62
2022-12-06T13:56:23.867Z,80.73
2022-12-06T13:57:23.840Z,79.94
2022-12-06T13:58:23.834Z,80.73
2022-12-06T13:59:28.896Z,80.76
2022-12-06T14:00:23.814Z,80.93
2022-12-06T14:01:23.893Z,80.15
2022-12-06T14:02:23.838Z,81.07
2022-12-06T14:03:23.777Z,81.28
2022-12-06T14:04:23.762Z,80.42
2022-12-06T14:05:23.753Z,80.32
2022-12-06T14:06:23.743Z,81.28
2022-12-06T14:07:23.741Z,81.76
2022-12-06T14:08:23.812Z,81.49
2022-12-06T14:09:23.709Z,81.45
2022-12-06T14:10:28.722Z,81.59
2022-12-06T14:11:23.699Z,81.45
2022-12-06T14:12:23.685Z,81.66
2022-12-06T14:13:23.711Z,82.07
2022-12-06T14:14:23.671Z,81.90
2022-12-06T14:15:23.638Z,81.28
2022-12-06T14:16:23.672Z,82.17
2022-12-06T14:17:53.016Z,81.24
2022-12-06T14:18:24.608Z,81.45
2022-12-06T14:19:23.598Z,81.14
2022-12-06T14:20:23.586Z,81.28
2022-12-06T14:21:28.598Z,81.28
2022-12-06T14:22:23.558Z,82.10
2022-12-06T14:23:23.558Z,81.70
2022-12-06T14:24:23.548Z,81.45
2022-12-06T14:25:23.527Z,81.66
2022-12-06T14:26:23.553Z,81.59
2022-12-06T14:27:23.500Z,81.59
2022-12-06T14:28:23.507Z,81.70
2022-12-06T14:29:23.476Z,82.21
2022-12-06T14:30:25.843Z,82.00
2022-12-06T14:31:23.502Z,82.00
2022-12-06T14:32:28.489Z,82.31
2022-12-06T14:33:23.480Z,82.83
2022-12-06T14:34:23.422Z,82.42
2022-12-06T14:35:23.413Z,82.31
2022-12-06T14:36:23.400Z,82.93
2022-12-06T14:37:23.387Z,82.10
2022-12-06T14:38:23.392Z,82.17
2022-12-06T14:39:23.369Z,81.38
2022-12-06T14:40:45.438Z,82.00
2022-12-06T14:41:24.343Z,82.42
2022-12-06T14:42:23.341Z,82.83
2022-12-06T14:43:28.360Z,81.70
2022-12-06T14:44:23.309Z,81.38
2022-12-06T14:45:23.299Z,82.21
2022-12-06T14:46:23.412Z,82.21
2022-12-06T14:47:23.284Z,82.42
2022-12-06T14:48:23.301Z,82.79
2022-12-06T14:49:23.258Z,82.83
2022-12-06T14:50:23.250Z,82.83
2022-12-06T14:51:23.922Z,82.73
2022-12-06T14:52:23.225Z,82.69
2022-12-06T14:53:23.305Z,82.38
2022-12-06T14:54:28.230Z,82.38
2022-12-06T14:55:23.188Z,82.62
2022-12-06T14:56:23.176Z,82.62
2022-12-06T14:57:23.164Z,82.79
2022-12-06T14:58:23.156Z,82.38
2022-12-06T14:59:47.417Z,82.69
2022-12-06T15:00:27.423Z,82.48
2022-12-06T15:01:23.117Z,83.04
2022-12-06T15:02:23.113Z,83.04
2022-12-06T15:03:23.549Z,83.00
2022-12-06T15:04:23.186Z,83.00
2022-12-06T15:05:28.096Z,82.48
2022-12-06T15:06:23.063Z,82.69
2022-12-06T15:07:23.052Z,82.73
2022-12-06T15:08:23.105Z,83.04
2022-12-06T15:09:23.047Z,83.20
2022-12-06T15:10:23.084Z,83.10
2022-12-06T15:11:23.016Z,83.04
2022-12-06T15:12:22.993Z,82.69
2022-12-06T15:13:22.997Z,83.31
2022-12-06T15:14:22.983Z,83.25
2022-12-06T15:15:22.998Z,83.04
2022-12-06T15:16:28.070Z,83.76
2022-12-06T15:17:22.941Z,82.93
2022-12-06T15:18:22.933Z,83.25
2022-12-06T15:19:22.937Z,83.14
2022-12-06T15:20:22.928Z,83.04
2022-12-06T15:21:22.898Z,83.34
2022-12-06T15:22:25.223Z,83.04
2022-12-06T15:23:22.877Z,82.93
2022-12-06T15:24:22.867Z,83.86
2022-12-06T15:25:22.848Z,82.73
2022-12-06T15:26:22.887Z,83.65
2022-12-06T15:27:27.852Z,83.65
2022-12-06T15:28:22.811Z,83.76
2022-12-06T15:29:22.822Z,83.55
2022-12-06T15:30:22.788Z,83.45
2022-12-06T15:31:22.883Z,83.45
2022-12-06T15:32:22.767Z,83.97
2022-12-06T15:33:22.760Z,83.72
2022-12-06T15:34:22.748Z,84.59
2022-12-06T15:35:22.749Z,84.38
2022-12-06T15:36:22.737Z,84.55
2022-12-06T15:37:40.255Z,84.38
2022-12-06T15:38:28.741Z,84.79
2022-12-06T15:39:22.686Z,84.69
2022-12-06T15:40:22.687Z,84.89
2022-12-06T15:41:22.665Z,84.59
2022-12-06T15:42:22.661Z,84.79
2022-12-06T15:43:22.646Z,84.48
2022-12-06T15:44:22.630Z,84.28
2022-12-06T15:45:22.629Z,84.28
2022-12-06T15:46:22.669Z,85.00
2022-12-06T15:47:22.600Z,84.69
2022-12-06T15:48:22.595Z,84.59
2022-12-06T15:49:27.595Z,85.00
2022-12-06T15:50:22.570Z,84.59
2022-12-06T15:51:22.553Z,84.07
2022-12-06T15:52:22.568Z,84.89
2022-12-06T15:53:22.549Z,85.00
2022-12-06T15:54:22.534Z,84.89
2022-12-06T15:55:22.514Z,84.59
2022-12-06T15:56:22.544Z,84.17
2022-12-06T15:57:22.483Z,84.59
2022-12-06T15:58:22.468Z,84.89
2022-12-06T15:59:22.457Z,84.79
2022-12-06T16:00:27.496Z,84.89
2022-12-06T16:01:22.510Z,84.79
2022-12-06T16:02:22.503Z,84.89
2022-12-06T16:03:22.478Z,84.59
2022-12-06T16:04:22.401Z,84.59
2022-12-06T16:05:22.408Z,84.59
2022-12-06T16:06:22.377Z,84.69
2022-12-06T16:07:22.369Z,84.79
2022-12-06T16:08:22.498Z,84.59
2022-12-06T16:09:22.349Z,84.48
2022-12-06T16:10:29.286Z,84.94
2022-12-06T16:11:28.356Z,84.83
2022-12-06T16:12:22.309Z,84.79
2022-12-06T16:13:22.306Z,84.83
2022-12-06T16:14:22.288Z,84.59
2022-12-06T16:15:22.293Z,84.59
2022-12-06T16:16:22.331Z,84.83
2022-12-06T16:17:22.256Z,85.21
2022-12-06T16:18:22.240Z,84.63
2022-12-06T16:19:22.231Z,85.14
2022-12-06T16:20:22.227Z,85.00
2022-12-06T16:21:22.693Z,85.24
2022-12-06T16:22:27.217Z,85.35
2022-12-06T16:23:22.184Z,85.35
2022-12-06T16:24:22.199Z,85.55
2022-12-06T16:25:22.162Z,85.04
2022-12-06T16:26:22.162Z,85.66
2022-12-06T16:27:22.142Z,85.45
2022-12-06T16:28:22.136Z,85.24
2022-12-06T16:29:22.122Z,85.24
2022-12-06T16:30:22.105Z,85.24
2022-12-06T16:31:22.173Z,85.24
2022-12-06T16:32:22.085Z,85.24
2022-12-06T16:33:27.095Z,85.55
2022-12-06T16:34:22.060Z,85.66
2022-12-06T16:35:22.049Z,85.24
2022-12-06T16:36:22.059Z,85.76
2022-12-06T16:37:22.031Z,85.66
2022-12-06T16:38:22.044Z,85.14
2022-12-06T16:39:22.009Z,85.24
2022-12-06T16:40:22.028Z,85.24
2022-12-06T16:41:22.005Z,85.45
2022-12-06T16:42:22.063Z,85.35
2022-12-06T16:43:21.965Z,84.63
2022-12-06T16:44:26.973Z,85.35
2022-12-06T16:45:21.938Z,85.24
2022-12-06T16:46:21.984Z,85.35
2022-12-06T16:47:50.833Z,85.52
2022-12-06T16:48:55.404Z,84.63
2022-12-06T16:49:50.782Z,84.63
2022-12-06T16:50:50.778Z,84.63
2022-12-06T16:51:50.791Z,85.04
2022-12-06T16:52:50.752Z,84.63
2022-12-06T16:53:50.740Z,84.73
2022-12-06T16:54:50.731Z,84.83
2022-12-06T16:55:50.747Z,85.24
2022-12-06T16:56:50.753Z,85.45
2022-12-06T16:57:50.707Z,85.24
2022-12-06T16:58:55.733Z,85.97
2022-12-06T16:59:50.676Z,85.52
2022-12-06T17:00:50.766Z,85.24
2022-12-06T17:01:50.653Z,85.24
2022-12-06T17:02:50.742Z,85.76
2022-12-06T17:03:50.649Z,85.24
2022-12-06T17:04:50.616Z,85.55
2022-12-06T17:05:50.629Z,85.76
2022-12-06T17:06:50.594Z,86.18
2022-12-06T17:07:50.706Z,86.18
2022-12-06T17:08:50.573Z,86.18
2022-12-06T17:09:55.595Z,85.45
2022-12-06T17:10:50.589Z,85.97
2022-12-06T17:11:50.561Z,85.66
2022-12-06T17:12:50.548Z,86.18
2022-12-06T17:13:50.517Z,86.38
2022-12-06T17:14:50.512Z,86.59
2022-12-06T17:15:50.555Z,85.97
2022-12-06T17:16:50.548Z,85.97
2022-12-06T17:17:50.485Z,86.28
2022-12-06T17:18:50.469Z,86.28
2022-12-06T17:19:50.454Z,85.97
2022-12-06T17:20:55.462Z,85.86
2022-12-06T17:21:50.430Z,86.18
2022-12-06T17:22:50.472Z,86.07
2022-12-06T17:23:50.400Z,85.86
2022-12-06T17:24:50.416Z,86.28
2022-12-06T17:25:50.381Z,85.97
2022-12-06T17:26:50.372Z,86.18
2022-12-06T17:27:50.405Z,85.97
2022-12-06T17:28:50.355Z,85.97
2022-12-06T17:29:50.340Z,85.66
2022-12-06T17:30:51.369Z,85.66
2022-12-06T17:31:55.572Z,85.66
2022-12-06T17:32:50.336Z,86.07
2022-12-06T17:33:50.294Z,86.28
2022-12-06T17:34:50.285Z,86.28
2022-12-06T17:35:50.266Z,85.76
2022-12-06T17:36:50.258Z,86.38
2022-12-06T17:37:50.256Z,86.49
2022-12-06T17:38:50.249Z,86.18
2022-12-06T17:39:50.221Z,85.76
2022-12-06T17:40:50.244Z,85.86
2022-12-06T17:41:52.175Z,85.97
2022-12-06T17:42:55.287Z,85.66
2022-12-06T17:43:50.182Z,86.07
2022-12-06T17:44:50.172Z,85.76
2022-12-06T17:45:50.234Z,86.18
2022-12-06T17:46:50.165Z,85.86
2022-12-06T17:47:50.158Z,85.86
2022-12-06T17:48:50.141Z,85.24
2022-12-06T17:49:50.109Z,85.76
2022-12-06T17:50:50.135Z,85.24
2022-12-06T17:51:50.108Z,85.35
2022-12-06T17:52:50.081Z,85.14
2022-12-06T17:53:55.143Z,85.14